sensor_id;sensor_type;location;lat;lon;timestamp;temperature;humidity
6468;DHT22;3267;48.794;9.928;2023-05-01T04:03:36;12.50;65.60
6468;DHT22;3267;48.794;9.928;2023-05-01T04:06:02;12.50;66.40
6468;DHT22;3267;48.794;9.928;2023-05-01T04:08:27;12.50;66.30
6468;DHT22;3267;48.794;9.928;2023-05-01T04:10:53;12.50;66.50
6468;DHT22;3267;48.794;9.928;2023-05-01T04:13:18;12.40;66.70
6468;DHT22;3267;48.794;9.928;2023-05-01T04:15:44;12.40;66.80
6468;DHT22;3267;48.794;9.928;2023-05-01T04:18:11;12.40;67.20
6468;DHT22;3267;48.794;9.928;2023-05-01T04:20:36;12.40;67.20
6468;DHT22;3267;48.794;9.928;2023-05-01T04:23:02;12.90;67.90
6468;DHT22;3267;48.794;9.928;2023-05-01T04:25:28;12.30;67.30
6468;DHT22;3267;48.794;9.928;2023-05-01T04:27:53;12.30;67.20
6468;DHT22;3267;48.794;9.928;2023-05-01T04:30:19;12.30;67.10
6468;DHT22;3267;48.794;9.928;2023-05-01T04:32:45;12.30;67.00
6468;DHT22;3267;48.794;9.928;2023-05-01T04:35:10;12.30;67.20
6468;DHT22;3267;48.794;9.928;2023-05-01T04:37:36;12.30;67.40
6468;DHT22;3267;48.794;9.928;2023-05-01T04:40:02;12.30;67.30
6468;DHT22;3267;48.794;9.928;2023-05-01T04:42:32;12.40;67.00
6468;DHT22;3267;48.794;9.928;2023-05-01T04:44:58;12.50;66.50
6468;DHT22;3267;48.794;9.928;2023-05-01T04:47:29;12.60;66.30
6468;DHT22;3267;48.794;9.928;2023-05-01T04:49:54;12.70;66.10
6468;DHT22;3267;48.794;9.928;2023-05-01T04:52:20;12.70;65.00
6468;DHT22;3267;48.794;9.928;2023-05-01T04:54:45;12.70;65.90
6468;DHT22;3267;48.794;9.928;2023-05-01T04:57:11;12.80;66.00
6468;DHT22;3267;48.794;9.928;2023-05-01T04:59:37;12.70;65.70
6468;DHT22;3267;48.794;9.928;2023-05-01T05:02:03;12.80;66.00
6468;DHT22;3267;48.794;9.928;2023-05-01T05:04:29;12.70;66.20
6468;DHT22;3267;48.794;9.928;2023-05-01T05:06:54;12.70;66.60
6468;DHT22;3267;48.794;9.928;2023-05-01T05:09:20;12.70;67.10
6468;DHT22;3267;48.794;9.928;2023-05-01T05:11:45;12.60;67.10
6468;DHT22;3267;48.794;9.928;2023-05-01T05:14:11;11.30;64.70
6468;DHT22;3267;48.794;9.928;2023-05-01T05:16:37;14.60;69.40
6468;DHT22;3267;48.794;9.928;2023-05-01T05:19:02;12.60;67.40
6468;DHT22;3267;48.794;9.928;2023-05-01T05:21:28;12.90;67.10
6468;DHT22;3267;48.794;9.928;2023-05-01T05:23:54;12.70;67.10
6468;DHT22;3267;48.794;9.928;2023-05-01T05:26:19;14.20;68.70
6468;DHT22;3267;48.794;9.928;2023-05-01T05:28:46;12.70;67.10
6468;DHT22;3267;48.794;9.928;2023-05-01T05:31:12;12.80;67.00
6468;DHT22;3267;48.794;9.928;2023-05-01T05:33:37;12.70;67.30
6468;DHT22;3267;48.794;9.928;2023-05-01T05:36:03;12.70;67.20
6468;DHT22;3267;48.794;9.928;2023-05-01T05:38:29;12.70;67.30
6468;DHT22;3267;48.794;9.928;2023-05-01T05:40:55;12.70;67.80
6468;DHT22;3267;48.794;9.928;2023-05-01T05:43:22;15.10;70.80
6468;DHT22;3267;48.794;9.928;2023-05-01T05:45:47;12.70;68.30
6468;DHT22;3267;48.794;9.928;2023-05-01T05:48:13;12.70;68.70
6468;DHT22;3267;48.794;9.928;2023-05-01T05:50:39;12.60;69.00
6468;DHT22;3267;48.794;9.928;2023-05-01T05:53:04;12.60;69.10
6468;DHT22;3267;48.794;9.928;2023-05-01T05:55:30;13.90;70.70
6468;DHT22;3267;48.794;9.928;2023-05-01T05:57:56;12.60;69.40
6468;DHT22;3267;48.794;9.928;2023-05-01T06:00:22;12.70;69.20
6468;DHT22;3267;48.794;9.928;2023-05-01T06:02:48;12.70;68.80
6468;DHT22;3267;48.794;9.928;2023-05-01T06:05:13;12.80;67.80
6468;DHT22;3267;48.794;9.928;2023-05-01T06:07:39;12.90;67.70
6468;DHT22;3267;48.794;9.928;2023-05-01T06:10:05;13.00;67.70
6468;DHT22;3267;48.794;9.928;2023-05-01T06:12:31;12.90;68.70
6468;DHT22;3267;48.794;9.928;2023-05-01T06:14:57;13.00;68.80
6468;DHT22;3267;48.794;9.928;2023-05-01T06:17:23;13.00;68.60
6468;DHT22;3267;48.794;9.928;2023-05-01T06:19:49;13.00;69.30
6468;DHT22;3267;48.794;9.928;2023-05-01T06:22:17;13.10;68.20
6468;DHT22;3267;48.794;9.928;2023-05-01T06:24:43;13.00;69.10
6468;DHT22;3267;48.794;9.928;2023-05-01T06:27:09;13.40;69.30
6468;DHT22;3267;48.794;9.928;2023-05-01T06:29:34;14.00;70.10
6468;DHT22;3267;48.794;9.928;2023-05-01T06:32:01;13.20;68.90
6468;DHT22;3267;48.794;9.928;2023-05-01T06:34:27;13.20;69.20
6468;DHT22;3267;48.794;9.928;2023-05-01T06:36:52;13.30;69.20
6468;DHT22;3267;48.794;9.928;2023-05-01T06:39:18;13.30;69.10
6468;DHT22;3267;48.794;9.928;2023-05-01T06:41:47;13.30;68.00
6468;DHT22;3267;48.794;9.928;2023-05-01T06:44:13;13.40;69.00
6468;DHT22;3267;48.794;9.928;2023-05-01T06:46:39;13.50;69.30
6468;DHT22;3267;48.794;9.928;2023-05-01T06:49:05;13.50;69.80
6468;DHT22;3267;48.794;9.928;2023-05-01T06:51:31;13.50;69.00
6468;DHT22;3267;48.794;9.928;2023-05-01T06:53:57;13.60;69.30
6468;DHT22;3267;48.794;9.928;2023-05-01T06:56:24;13.50;69.50
6468;DHT22;3267;48.794;9.928;2023-05-01T06:58:50;13.60;69.50
6468;DHT22;3267;48.794;9.928;2023-05-01T07:01:16;13.60;69.70
6468;DHT22;3267;48.794;9.928;2023-05-01T07:03:42;13.60;69.60
6468;DHT22;3267;48.794;9.928;2023-05-01T07:06:08;13.70;69.60
6468;DHT22;3267;48.794;9.928;2023-05-01T07:08:33;13.70;69.70
6468;DHT22;3267;48.794;9.928;2023-05-01T07:10:59;13.70;69.30
6468;DHT22;3267;48.794;9.928;2023-05-01T07:13:25;13.80;69.20
6468;DHT22;3267;48.794;9.928;2023-05-01T07:15:51;13.80;68.80
6468;DHT22;3267;48.794;9.928;2023-05-01T07:18:18;13.90;69.10
6468;DHT22;3267;48.794;9.928;2023-05-01T07:20:43;13.90;68.70
6468;DHT22;3267;48.794;9.928;2023-05-01T07:23:10;13.80;68.80
6468;DHT22;3267;48.794;9.928;2023-05-01T07:25:36;13.90;68.40
6468;DHT22;3267;48.794;9.928;2023-05-01T07:28:02;14.00;69.20
6468;DHT22;3267;48.794;9.928;2023-05-01T07:30:30;13.90;69.10
6468;DHT22;3267;48.794;9.928;2023-05-01T07:32:57;13.80;69.70
6468;DHT22;3267;48.794;9.928;2023-05-01T07:35:23;13.80;69.30
6468;DHT22;3267;48.794;9.928;2023-05-01T07:37:49;13.90;69.10
6468;DHT22;3267;48.794;9.928;2023-05-01T07:40:16;14.00;69.10
6468;DHT22;3267;48.794;9.928;2023-05-01T07:42:42;14.00;69.50
6468;DHT22;3267;48.794;9.928;2023-05-01T07:45:08;13.90;70.70
6468;DHT22;3267;48.794;9.928;2023-05-01T07:47:33;14.00;68.80
6468;DHT22;3267;48.794;9.928;2023-05-01T07:49:59;14.00;69.80
6468;DHT22;3267;48.794;9.928;2023-05-01T07:52:28;14.00;70.10
6468;DHT22;3267;48.794;9.928;2023-05-01T07:54:53;14.10;70.10
6468;DHT22;3267;48.794;9.928;2023-05-01T07:57:19;14.20;69.50
6468;DHT22;3267;48.794;9.928;2023-05-01T07:59:45;14.20;69.40
6468;DHT22;3267;48.794;9.928;2023-05-01T08:02:11;14.30;70.10
6468;DHT22;3267;48.794;9.928;2023-05-01T08:04:38;14.20;70.30
6468;DHT22;3267;48.794;9.928;2023-05-01T08:07:04;14.30;70.60
6468;DHT22;3267;48.794;9.928;2023-05-01T08:09:30;14.30;70.40
6468;DHT22;3267;48.794;9.928;2023-05-01T08:11:55;14.30;70.50
6468;DHT22;3267;48.794;9.928;2023-05-01T08:14:21;14.40;70.70
6468;DHT22;3267;48.794;9.928;2023-05-01T08:16:47;14.40;70.90
6468;DHT22;3267;48.794;9.928;2023-05-01T08:19:18;15.30;72.00
6468;DHT22;3267;48.794;9.928;2023-05-01T08:21:44;16.40;73.30
6468;DHT22;3267;48.794;9.928;2023-05-01T08:24:10;14.90;71.70
6468;DHT22;3267;48.794;9.928;2023-05-01T08:26:36;14.50;71.30
6468;DHT22;3267;48.794;9.928;2023-05-01T08:29:02;15.60;72.70
6468;DHT22;3267;48.794;9.928;2023-05-01T08:31:27;14.50;72.00
6468;DHT22;3267;48.794;9.928;2023-05-01T08:33:53;15.10;72.70
6468;DHT22;3267;48.794;9.928;2023-05-01T08:36:18;14.70;72.10
6468;DHT22;3267;48.794;9.928;2023-05-01T08:38:44;14.60;72.50
6468;DHT22;3267;48.794;9.928;2023-05-01T08:41:15;14.70;72.50
6468;DHT22;3267;48.794;9.928;2023-05-01T08:43:41;14.70;72.40
6468;DHT22;3267;48.794;9.928;2023-05-01T08:46:08;17.10;74.90
6468;DHT22;3267;48.794;9.928;2023-05-01T08:48:35;14.80;72.40
6468;DHT22;3267;48.794;9.928;2023-05-01T08:51:03;15.50;73.00
6468;DHT22;3267;48.794;9.928;2023-05-01T08:53:31;14.90;72.40
6468;DHT22;3267;48.794;9.928;2023-05-01T08:55:58;15.00;72.30
6468;DHT22;3267;48.794;9.928;2023-05-01T08:58:26;15.40;72.30
6468;DHT22;3267;48.794;9.928;2023-05-01T09:00:53;15.10;71.90
6468;DHT22;3267;48.794;9.928;2023-05-01T09:03:22;15.20;72.20
6468;DHT22;3267;48.794;9.928;2023-05-01T09:05:49;15.30;72.70
6468;DHT22;3267;48.794;9.928;2023-05-01T09:08:18;15.70;73.40
6468;DHT22;3267;48.794;9.928;2023-05-01T09:10:47;17.20;74.80
6468;DHT22;3267;48.794;9.928;2023-05-01T09:13:13;16.10;73.70
6468;DHT22;3267;48.794;9.928;2023-05-01T09:15:38;16.70;74.10
6468;DHT22;3267;48.794;9.928;2023-05-01T09:18:04;15.80;73.10
6468;DHT22;3267;48.794;9.928;2023-05-01T09:20:30;17.90;75.10
6468;DHT22;3267;48.794;9.928;2023-05-01T09:22:56;15.90;72.70
6468;DHT22;3267;48.794;9.928;2023-05-01T09:25:22;16.00;73.20
6468;DHT22;3267;48.794;9.928;2023-05-01T09:27:48;16.20;73.00
6468;DHT22;3267;48.794;9.928;2023-05-01T09:30:33;16.20;72.90
6468;DHT22;3267;48.794;9.928;2023-05-01T09:33:09;16.30;72.80
6468;DHT22;3267;48.794;9.928;2023-05-01T09:35:55;16.60;72.80
6468;DHT22;3267;48.794;9.928;2023-05-01T09:38:23;16.70;72.60
6468;DHT22;3267;48.794;9.928;2023-05-01T09:40:50;16.60;72.40
6468;DHT22;3267;48.794;9.928;2023-05-01T09:43:26;16.60;72.70
6468;DHT22;3267;48.794;9.928;2023-05-01T09:46:03;16.70;72.70
6468;DHT22;3267;48.794;9.928;2023-05-01T09:48:34;16.80;72.80
6468;DHT22;3267;48.794;9.928;2023-05-01T09:51:00;17.00;73.00
6468;DHT22;3267;48.794;9.928;2023-05-01T09:53:36;16.90;72.40
6468;DHT22;3267;48.794;9.928;2023-05-01T09:56:03;17.00;72.50
6468;DHT22;3267;48.794;9.928;2023-05-01T09:58:28;17.10;72.20
6468;DHT22;3267;48.794;9.928;2023-05-01T10:00:54;17.40;72.30
6468;DHT22;3267;48.794;9.928;2023-05-01T10:03:20;17.40;72.50
6468;DHT22;3267;48.794;9.928;2023-05-01T10:05:46;17.10;71.90
6468;DHT22;3267;48.794;9.928;2023-05-01T10:08:12;17.20;71.90
6468;DHT22;3267;48.794;9.928;2023-05-01T10:10:42;17.50;72.10
6468;DHT22;3267;48.794;9.928;2023-05-01T10:13:13;17.80;72.20
6468;DHT22;3267;48.794;9.928;2023-05-01T10:15:39;19.10;73.30
6468;DHT22;3267;48.794;9.928;2023-05-01T10:18:06;17.40;71.40
6468;DHT22;3267;48.794;9.928;2023-05-01T10:20:34;17.40;72.10
6468;DHT22;3267;48.794;9.928;2023-05-01T10:23:01;17.50;71.10
6468;DHT22;3267;48.794;9.928;2023-05-01T10:25:28;17.50;70.80
6468;DHT22;3267;48.794;9.928;2023-05-01T10:27:54;19.30;72.70
6468;DHT22;3267;48.794;9.928;2023-05-01T10:30:21;18.50;71.70
6468;DHT22;3267;48.794;9.928;2023-05-01T10:32:48;17.70;70.90
6468;DHT22;3267;48.794;9.928;2023-05-01T10:35:40;17.60;70.80
6468;DHT22;3267;48.794;9.928;2023-05-01T10:38:12;19.00;72.10
6468;DHT22;3267;48.794;9.928;2023-05-01T10:40:43;17.50;70.30
6468;DHT22;3267;48.794;9.928;2023-05-01T10:43:22;17.50;70.20
6468;DHT22;3267;48.794;9.928;2023-05-01T10:51:16;18.00;71.00
6468;DHT22;3267;48.794;9.928;2023-05-01T10:53:46;17.60;70.60
6468;DHT22;3267;48.794;9.928;2023-05-01T10:58:56;17.70;70.50
6468;DHT22;3267;48.794;9.928;2023-05-01T11:01:42;17.80;71.20
6468;DHT22;3267;48.794;9.928;2023-05-01T11:09:52;18.10;70.20
6468;DHT22;3267;48.794;9.928;2023-05-01T11:15:12;18.30;70.00
6468;DHT22;3267;48.794;9.928;2023-05-01T11:23:00;18.50;70.00
6468;DHT22;3267;48.794;9.928;2023-05-01T11:25:28;18.60;69.20
6468;DHT22;3267;48.794;9.928;2023-05-01T11:28:02;18.60;69.40
6468;DHT22;3267;48.794;9.928;2023-05-01T11:30:40;18.70;69.40
6468;DHT22;3267;48.794;9.928;2023-05-01T11:33:07;18.80;69.30
6468;DHT22;3267;48.794;9.928;2023-05-01T11:35:32;19.00;69.20
6468;DHT22;3267;48.794;9.928;2023-05-01T11:37:58;19.30;68.80
6468;DHT22;3267;48.794;9.928;2023-05-01T11:40:24;19.20;68.90
6468;DHT22;3267;48.794;9.928;2023-05-01T11:43:05;19.30;68.60
6468;DHT22;3267;48.794;9.928;2023-05-01T11:47:58;19.40;68.00
6468;DHT22;3267;48.794;9.928;2023-05-01T11:50:37;19.30;67.50
6468;DHT22;3267;48.794;9.928;2023-05-01T11:53:13;19.40;72.30
6468;DHT22;3267;48.794;9.928;2023-05-01T11:58:06;19.60;73.40
6468;DHT22;3267;48.794;9.928;2023-05-01T12:00:37;19.50;67.90
6468;DHT22;3267;48.794;9.928;2023-05-01T12:03:13;19.50;67.90
6468;DHT22;3267;48.794;9.928;2023-05-01T12:05:40;19.60;68.40
6468;DHT22;3267;48.794;9.928;2023-05-01T12:10:43;19.80;68.30
6468;DHT22;3267;48.794;9.928;2023-05-01T12:13:11;19.90;67.90
6468;DHT22;3267;48.794;9.928;2023-05-01T12:15:45;20.00;68.30
6468;DHT22;3267;48.794;9.928;2023-05-01T12:18:13;20.10;68.40
6468;DHT22;3267;48.794;9.928;2023-05-01T12:20:44;20.20;68.30
6468;DHT22;3267;48.794;9.928;2023-05-01T12:23:13;20.30;68.20
6468;DHT22;3267;48.794;9.928;2023-05-01T12:25:41;20.30;68.30
6468;DHT22;3267;48.794;9.928;2023-05-01T12:28:18;20.50;67.30
6468;DHT22;3267;48.794;9.928;2023-05-01T12:30:47;20.30;67.20
6468;DHT22;3267;48.794;9.928;2023-05-01T12:33:19;20.30;66.90
6468;DHT22;3267;48.794;9.928;2023-05-01T12:35:46;20.30;67.20
6468;DHT22;3267;48.794;9.928;2023-05-01T12:38:14;20.30;67.20
6468;DHT22;3267;48.794;9.928;2023-05-01T12:40:50;20.30;67.20
6468;DHT22;3267;48.794;9.928;2023-05-01T12:43:18;20.40;67.50
6468;DHT22;3267;48.794;9.928;2023-05-01T12:45:44;20.40;66.40
6468;DHT22;3267;48.794;9.928;2023-05-01T12:48:13;20.40;67.00
6468;DHT22;3267;48.794;9.928;2023-05-01T12:50:40;20.50;66.90
6468;DHT22;3267;48.794;9.928;2023-05-01T12:53:06;20.60;66.70
6468;DHT22;3267;48.794;9.928;2023-05-01T12:55:45;20.50;66.50
6468;DHT22;3267;48.794;9.928;2023-05-01T12:58:12;20.60;67.10
6468;DHT22;3267;48.794;9.928;2023-05-01T13:00:51;20.60;66.80
6468;DHT22;3267;48.794;9.928;2023-05-01T13:03:22;20.70;66.90
6468;DHT22;3267;48.794;9.928;2023-05-01T13:05:53;20.80;66.70
6468;DHT22;3267;48.794;9.928;2023-05-01T13:08:39;20.70;66.20
6468;DHT22;3267;48.794;9.928;2023-05-01T13:11:10;21.20;67.00
6468;DHT22;3267;48.794;9.928;2023-05-01T13:13:38;20.90;66.30
6468;DHT22;3267;48.794;9.928;2023-05-01T13:16:08;20.80;66.50
6468;DHT22;3267;48.794;9.928;2023-05-01T13:18:52;21.70;67.00
6468;DHT22;3267;48.794;9.928;2023-05-01T13:21:20;22.60;68.30
6468;DHT22;3267;48.794;9.928;2023-05-01T13:23:57;21.00;65.50
6468;DHT22;3267;48.794;9.928;2023-05-01T13:26:26;21.00;66.10
6468;DHT22;3267;48.794;9.928;2023-05-01T13:29:00;21.10;65.40
6468;DHT22;3267;48.794;9.928;2023-05-01T13:31:26;21.10;65.70
6468;DHT22;3267;48.794;9.928;2023-05-01T13:33:53;21.20;65.50
6468;DHT22;3267;48.794;9.928;2023-05-01T13:36:19;21.20;65.50
6468;DHT22;3267;48.794;9.928;2023-05-01T13:38:51;21.30;64.70
6468;DHT22;3267;48.794;9.928;2023-05-01T13:41:22;21.20;64.50
6468;DHT22;3267;48.794;9.928;2023-05-01T13:43:50;21.30;64.50
6468;DHT22;3267;48.794;9.928;2023-05-01T13:46:18;21.30;65.10
6468;DHT22;3267;48.794;9.928;2023-05-01T13:48:44;21.30;64.10
6468;DHT22;3267;48.794;9.928;2023-05-01T13:51:19;21.40;64.20
6468;DHT22;3267;48.794;9.928;2023-05-01T13:53:44;22.90;64.20
6468;DHT22;3267;48.794;9.928;2023-05-01T13:56:10;21.30;62.80
6468;DHT22;3267;48.794;9.928;2023-05-01T13:58:40;21.30;63.60
6468;DHT22;3267;48.794;9.928;2023-05-01T14:01:13;21.30;62.30
6468;DHT22;3267;48.794;9.928;2023-05-01T14:03:41;21.30;63.40
6468;DHT22;3267;48.794;9.928;2023-05-01T14:06:13;21.50;64.50
6468;DHT22;3267;48.794;9.928;2023-05-01T14:08:39;21.60;63.30
6468;DHT22;3267;48.794;9.928;2023-05-01T14:11:08;21.40;64.20
6468;DHT22;3267;48.794;9.928;2023-05-01T14:13:35;22.20;63.70
6468;DHT22;3267;48.794;9.928;2023-05-01T14:16:08;22.60;65.40
6468;DHT22;3267;48.794;9.928;2023-05-01T14:18:40;23.10;68.20
6468;DHT22;3267;48.794;9.928;2023-05-01T14:21:07;23.00;65.40
6468;DHT22;3267;48.794;9.928;2023-05-01T14:23:34;24.10;65.50
6468;DHT22;3267;48.794;9.928;2023-05-01T14:26:00;24.40;63.50
6468;DHT22;3267;48.794;9.928;2023-05-01T14:28:26;24.90;64.10
6468;DHT22;3267;48.794;9.928;2023-05-01T14:30:52;25.10;63.70
6468;DHT22;3267;48.794;9.928;2023-05-01T14:33:19;25.20;63.00
6468;DHT22;3267;48.794;9.928;2023-05-01T14:35:49;25.20;63.30
6468;DHT22;3267;48.794;9.928;2023-05-01T14:38:17;25.00;60.80
6468;DHT22;3267;48.794;9.928;2023-05-01T14:40:45;24.70;61.60
6468;DHT22;3267;48.794;9.928;2023-05-01T14:43:17;24.30;61.70
6468;DHT22;3267;48.794;9.928;2023-05-01T14:45:45;24.20;62.50
6468;DHT22;3267;48.794;9.928;2023-05-01T14:48:21;24.00;61.40
6468;DHT22;3267;48.794;9.928;2023-05-01T14:50:48;23.80;62.10
6468;DHT22;3267;48.794;9.928;2023-05-01T14:53:13;23.70;61.90
6468;DHT22;3267;48.794;9.928;2023-05-01T14:55:40;23.70;62.10
6468;DHT22;3267;48.794;9.928;2023-05-01T14:58:06;23.60;63.30
6468;DHT22;3267;48.794;9.928;2023-05-01T15:00:32;23.60;65.70
6468;DHT22;3267;48.794;9.928;2023-05-01T15:02:58;23.70;65.10
6468;DHT22;3267;48.794;9.928;2023-05-01T15:05:25;23.70;66.70
6468;DHT22;3267;48.794;9.928;2023-05-01T15:07:53;23.50;62.60
6468;DHT22;3267;48.794;9.928;2023-05-01T15:10:19;23.40;65.60
6468;DHT22;3267;48.794;9.928;2023-05-01T15:12:45;23.30;66.40
6468;DHT22;3267;48.794;9.928;2023-05-01T15:15:11;23.10;66.40
6468;DHT22;3267;48.794;9.928;2023-05-01T15:17:37;23.00;65.70
6468;DHT22;3267;48.794;9.928;2023-05-01T15:20:03;23.50;66.40
6468;DHT22;3267;48.794;9.928;2023-05-01T15:22:29;22.80;66.50
6468;DHT22;3267;48.794;9.928;2023-05-01T15:24:55;22.60;65.90
6468;DHT22;3267;48.794;9.928;2023-05-01T15:27:23;22.50;67.10
6468;DHT22;3267;48.794;9.928;2023-05-01T15:29:49;22.50;67.70
6468;DHT22;3267;48.794;9.928;2023-05-01T15:32:15;22.30;65.40
6468;DHT22;3267;48.794;9.928;2023-05-01T15:34:41;22.10;67.00
6468;DHT22;3267;48.794;9.928;2023-05-01T15:37:07;21.90;65.10
6468;DHT22;3267;48.794;9.928;2023-05-01T15:39:33;21.90;67.00
6468;DHT22;3267;48.794;9.928;2023-05-01T15:41:58;21.90;67.20
6468;DHT22;3267;48.794;9.928;2023-05-01T15:44:25;21.60;65.60
6468;DHT22;3267;48.794;9.928;2023-05-01T15:46:53;21.50;66.50
6468;DHT22;3267;48.794;9.928;2023-05-01T15:49:19;21.60;68.20
6468;DHT22;3267;48.794;9.928;2023-05-01T15:51:45;21.60;67.20
6468;DHT22;3267;48.794;9.928;2023-05-01T15:54:10;21.80;67.50
6468;DHT22;3267;48.794;9.928;2023-05-01T15:56:36;21.20;67.70
6468;DHT22;3267;48.794;9.928;2023-05-01T15:59:03;22.20;68.00
6468;DHT22;3267;48.794;9.928;2023-05-01T16:01:34;21.00;65.60
6468;DHT22;3267;48.794;9.928;2023-05-01T16:04:02;21.30;68.60
6468;DHT22;3267;48.794;9.928;2023-05-01T16:06:28;21.00;68.40
6468;DHT22;3267;48.794;9.928;2023-05-01T16:08:54;21.50;69.00
6468;DHT22;3267;48.794;9.928;2023-05-01T16:11:21;21.10;69.30
6468;DHT22;3267;48.794;9.928;2023-05-01T16:13:47;21.10;68.20
6468;DHT22;3267;48.794;9.928;2023-05-01T16:16:21;21.40;68.40
6468;DHT22;3267;48.794;9.928;2023-05-01T16:18:57;21.40;68.50
6468;DHT22;3267;48.794;9.928;2023-05-01T16:21:24;21.40;68.10
6468;DHT22;3267;48.794;9.928;2023-05-01T16:23:51;21.50;68.10
6468;DHT22;3267;48.794;9.928;2023-05-01T16:26:25;21.60;68.20
6468;DHT22;3267;48.794;9.928;2023-05-01T16:28:58;21.60;67.80
6468;DHT22;3267;48.794;9.928;2023-05-01T16:31:24;21.90;68.90
6468;DHT22;3267;48.794;9.928;2023-05-01T16:33:51;21.70;69.00
6468;DHT22;3267;48.794;9.928;2023-05-01T16:36:19;21.70;68.70
6468;DHT22;3267;48.794;9.928;2023-05-01T16:38:45;23.20;69.70
6468;DHT22;3267;48.794;9.928;2023-05-01T16:41:16;23.10;69.70
6468;DHT22;3267;48.794;9.928;2023-05-01T16:43:44;21.40;68.10
6468;DHT22;3267;48.794;9.928;2023-05-01T16:46:15;21.40;68.50
6468;DHT22;3267;48.794;9.928;2023-05-01T16:48:41;21.30;69.30
6468;DHT22;3267;48.794;9.928;2023-05-01T16:51:08;21.30;69.60
6468;DHT22;3267;48.794;9.928;2023-05-01T16:53:37;21.30;69.70
6468;DHT22;3267;48.794;9.928;2023-05-01T16:56:03;21.30;69.40
6468;DHT22;3267;48.794;9.928;2023-05-01T16:58:29;21.20;69.40
6468;DHT22;3267;48.794;9.928;2023-05-01T17:00:54;21.10;69.60
6468;DHT22;3267;48.794;9.928;2023-05-01T17:03:22;21.20;69.10
6468;DHT22;3267;48.794;9.928;2023-05-01T17:05:49;22.50;70.40
6468;DHT22;3267;48.794;9.928;2023-05-01T17:08:14;20.80;68.10
6468;DHT22;3267;48.794;9.928;2023-05-01T17:10:40;21.90;68.10
6468;DHT22;3267;48.794;9.928;2023-05-01T17:13:07;22.80;69.70
6468;DHT22;3267;48.794;9.928;2023-05-01T17:15:33;20.50;67.60
6468;DHT22;3267;48.794;9.928;2023-05-01T17:17:58;22.70;69.70
6468;DHT22;3267;48.794;9.928;2023-05-01T17:20:24;21.80;68.30
6468;DHT22;3267;48.794;9.928;2023-05-01T17:22:51;20.30;67.10
6468;DHT22;3267;48.794;9.928;2023-05-01T17:25:16;20.30;67.40
6468;DHT22;3267;48.794;9.928;2023-05-01T17:27:43;20.20;67.10
6468;DHT22;3267;48.794;9.928;2023-05-01T17:30:09;20.20;67.30
6468;DHT22;3267;48.794;9.928;2023-05-01T17:32:35;20.10;67.30
6468;DHT22;3267;48.794;9.928;2023-05-01T17:35:00;20.10;67.70
6468;DHT22;3267;48.794;9.928;2023-05-01T17:37:27;20.00;67.80
6468;DHT22;3267;48.794;9.928;2023-05-01T17:39:53;22.50;70.30
6468;DHT22;3267;48.794;9.928;2023-05-01T17:42:19;21.80;70.00
6468;DHT22;3267;48.794;9.928;2023-05-01T17:44:45;19.80;68.00
6468;DHT22;3267;48.794;9.928;2023-05-01T17:47:11;19.70;68.20
6468;DHT22;3267;48.794;9.928;2023-05-01T17:49:37;22.10;70.80
6468;DHT22;3267;48.794;9.928;2023-05-01T17:52:03;19.60;68.70
6468;DHT22;3267;48.794;9.928;2023-05-01T17:54:29;19.50;68.80
6468;DHT22;3267;48.794;9.928;2023-05-01T17:56:55;19.40;68.50
6468;DHT22;3267;48.794;9.928;2023-05-01T17:59:20;19.40;68.90
6468;DHT22;3267;48.794;9.928;2023-05-01T18:01:46;20.70;70.20
6468;DHT22;3267;48.794;9.928;2023-05-01T18:04:15;20.90;70.60
6468;DHT22;3267;48.794;9.928;2023-05-01T18:06:41;19.10;68.90
6468;DHT22;3267;48.794;9.928;2023-05-01T18:09:06;19.10;69.00
6468;DHT22;3267;48.794;9.928;2023-05-01T18:11:33;20.00;70.30
6468;DHT22;3267;48.794;9.928;2023-05-01T18:13:58;21.50;71.90
6468;DHT22;3267;48.794;9.928;2023-05-01T18:16:24;18.90;69.40
6468;DHT22;3267;48.794;9.928;2023-05-01T18:18:50;18.80;69.40
6468;DHT22;3267;48.794;9.928;2023-05-01T18:21:16;20.10;70.80
6468;DHT22;3267;48.794;9.928;2023-05-01T18:23:41;21.50;72.30
6468;DHT22;3267;48.794;9.928;2023-05-01T18:26:08;19.90;70.60
6468;DHT22;3267;48.794;9.928;2023-05-01T18:28:34;18.70;69.50
6468;DHT22;3267;48.794;9.928;2023-05-01T18:30:59;20.50;71.50
6468;DHT22;3267;48.794;9.928;2023-05-01T18:40:23;18.50;69.60
6468;DHT22;3267;48.794;9.928;2023-05-01T18:42:49;18.40;69.60
6468;DHT22;3267;48.794;9.928;2023-05-01T18:45:17;18.30;69.70
6468;DHT22;3267;48.794;9.928;2023-05-01T18:47:43;18.30;69.80
6468;DHT22;3267;48.794;9.928;2023-05-01T18:50:09;18.20;69.80
6468;DHT22;3267;48.794;9.928;2023-05-01T18:52:35;18.20;69.90
6468;DHT22;3267;48.794;9.928;2023-05-01T18:55:01;18.20;70.00
6468;DHT22;3267;48.794;9.928;2023-05-01T18:57:27;18.20;70.10
6468;DHT22;3267;48.794;9.928;2023-05-01T18:59:53;18.10;69.90
6468;DHT22;3267;48.794;9.928;2023-05-01T19:02:20;18.70;70.60
6468;DHT22;3267;48.794;9.928;2023-05-01T19:04:47;18.00;70.00
6468;DHT22;3267;48.794;9.928;2023-05-01T19:07:13;17.90;70.00
6468;DHT22;3267;48.794;9.928;2023-05-01T19:09:39;17.90;70.20
6468;DHT22;3267;48.794;9.928;2023-05-01T19:12:05;17.80;70.10
6468;DHT22;3267;48.794;9.928;2023-05-01T19:14:30;17.80;70.20
6468;DHT22;3267;48.794;9.928;2023-05-01T19:16:56;18.00;70.60
6468;DHT22;3267;48.794;9.928;2023-05-01T19:19:22;17.80;70.20
6468;DHT22;3267;48.794;9.928;2023-05-01T19:21:48;18.10;70.60
6468;DHT22;3267;48.794;9.928;2023-05-01T19:24:15;17.70;70.40
6468;DHT22;3267;48.794;9.928;2023-05-01T19:26:41;17.70;70.60
6468;DHT22;3267;48.794;9.928;2023-05-01T19:29:07;17.60;70.50
6468;DHT22;3267;48.794;9.928;2023-05-01T19:31:33;17.50;70.50
6468;DHT22;3267;48.794;9.928;2023-05-01T19:33:59;18.00;71.20
6468;DHT22;3267;48.794;9.928;2023-05-01T19:36:25;17.40;70.60
6468;DHT22;3267;48.794;9.928;2023-05-01T19:38:51;17.60;71.50
6468;DHT22;3267;48.794;9.928;2023-05-01T19:41:16;18.90;72.00
6468;DHT22;3267;48.794;9.928;2023-05-01T19:43:42;17.50;70.60
6468;DHT22;3267;48.794;9.928;2023-05-01T19:46:08;17.40;70.60
6468;DHT22;3267;48.794;9.928;2023-05-01T19:48:34;17.30;70.60
6468;DHT22;3267;48.794;9.928;2023-05-01T19:50:59;17.30;70.70
6468;DHT22;3267;48.794;9.928;2023-05-01T19:53:25;17.20;70.80
6468;DHT22;3267;48.794;9.928;2023-05-01T19:55:52;17.20;70.80
6468;DHT22;3267;48.794;9.928;2023-05-01T19:58:18;18.00;72.50
6468;DHT22;3267;48.794;9.928;2023-05-01T20:00:44;18.40;72.10
6468;DHT22;3267;48.794;9.928;2023-05-01T20:03:10;17.10;70.90
6468;DHT22;3267;48.794;9.928;2023-05-01T20:05:36;17.50;71.40
6468;DHT22;3267;48.794;9.928;2023-05-01T20:08:02;18.00;72.00
6468;DHT22;3267;48.794;9.928;2023-05-01T20:10:29;17.00;71.20
6468;DHT22;3267;48.794;9.928;2023-05-01T20:12:54;17.00;71.30
6468;DHT22;3267;48.794;9.928;2023-05-01T20:15:20;16.90;71.20
6468;DHT22;3267;48.794;9.928;2023-05-01T20:17:46;16.90;71.20
6468;DHT22;3267;48.794;9.928;2023-05-01T20:20:18;17.00;71.40
6468;DHT22;3267;48.794;9.928;2023-05-01T20:22:44;16.90;71.30
6468;DHT22;3267;48.794;9.928;2023-05-01T20:25:10;16.80;71.40
6468;DHT22;3267;48.794;9.928;2023-05-01T20:27:37;16.80;71.60
6468;DHT22;3267;48.794;9.928;2023-05-01T20:30:05;16.70;71.60
6468;DHT22;3267;48.794;9.928;2023-05-01T20:32:31;16.70;71.70
6468;DHT22;3267;48.794;9.928;2023-05-01T20:34:56;16.70;71.80
6468;DHT22;3267;48.794;9.928;2023-05-01T20:37:22;16.60;71.90
6468;DHT22;3267;48.794;9.928;2023-05-01T20:39:48;16.70;72.10
6468;DHT22;3267;48.794;9.928;2023-05-01T20:42:13;18.10;73.30